createdAt,value
2022-10-14T00:02:19.989Z,18.80
2022-10-14T00:04:47.569Z,17.47
2022-10-14T00:07:15.006Z,19.47
2022-10-14T00:09:42.515Z,17.30
2022-10-14T00:12:10.132Z,18.73
2022-10-14T00:14:37.646Z,20.97
2022-10-14T00:17:05.129Z,21.20
2022-10-14T00:19:32.646Z,24.53
2022-10-14T00:22:00.093Z,21.37
2022-10-14T00:24:27.678Z,18.10
2022-10-14T00:26:55.178Z,22.57
2022-10-14T00:29:22.681Z,21.07
2022-10-14T00:31:50.369Z,17.87
2022-10-14T00:34:18.266Z,22.10
2022-10-14T00:36:45.780Z,17.97
2022-10-14T00:39:13.326Z,20.77
2022-10-14T00:41:41.050Z,21.00
2022-10-14T00:44:11.489Z,27.37
2022-10-14T00:46:42.016Z,19.57
2022-10-14T00:49:14.643Z,22.57
2022-10-14T00:51:43.716Z,13.97
2022-10-14T00:54:13.435Z,18.87
2022-10-14T00:56:41.573Z,16.63
2022-10-14T00:59:09.064Z,16.67
2022-10-14T01:01:36.620Z,20.50
2022-10-14T01:04:04.175Z,19.83
2022-10-14T01:06:42.947Z,15.40
2022-10-14T01:09:19.403Z,16.93
2022-10-14T01:12:27.496Z,17.07
2022-10-14T01:15:12.300Z,20.67
2022-10-14T01:17:45.976Z,16.10
2022-10-14T01:20:26.913Z,21.37
2022-10-14T01:23:12.785Z,16.97
2022-10-14T01:25:40.237Z,21.60
2022-10-14T01:28:18.148Z,19.37
2022-10-14T01:30:50.956Z,21.63
2022-10-14T01:33:24.804Z,25.03
2022-10-14T01:36:03.122Z,22.83
2022-10-14T01:38:33.456Z,24.83
2022-10-14T01:41:04.999Z,25.37
2022-10-14T01:43:33.040Z,25.63
2022-10-14T01:46:01.672Z,20.10
2022-10-14T01:48:33.005Z,25.43
2022-10-14T01:51:02.658Z,22.13
2022-10-14T01:53:32.733Z,22.80
2022-10-14T01:56:00.942Z,24.47
2022-10-14T01:58:29.586Z,21.07
2022-10-14T02:00:57.306Z,21.23
2022-10-14T02:03:24.745Z,18.23
2022-10-14T02:05:55.093Z,19.40
2022-10-14T02:08:41.045Z,18.33
2022-10-14T02:11:08.521Z,22.03
2022-10-14T02:13:49.394Z,19.27
2022-10-14T02:16:30.529Z,19.40
2022-10-14T02:19:06.993Z,20.20
2022-10-14T02:21:42.632Z,18.47
2022-10-14T02:24:25.159Z,17.90
2022-10-14T02:26:54.383Z,19.03
2022-10-14T02:29:23.026Z,18.77
2022-10-14T02:31:51.698Z,19.17
2022-10-14T02:34:21.727Z,16.73
2022-10-14T02:36:50.137Z,18.67
2022-10-14T02:39:21.116Z,17.57
2022-10-14T02:41:48.728Z,18.00
2022-10-14T02:44:16.191Z,21.30
2022-10-14T02:46:43.761Z,19.83
2022-10-14T02:49:11.420Z,20.10
2022-10-14T02:51:39.076Z,20.73
2022-10-14T02:54:06.520Z,19.73
2022-10-14T02:56:34.271Z,19.47
2022-10-14T02:59:01.920Z,18.57
2022-10-14T03:01:31.640Z,17.63
2022-10-14T03:04:02.600Z,18.30
2022-10-14T03:06:30.090Z,20.47
2022-10-14T03:08:57.598Z,18.43
2022-10-14T03:11:25.145Z,20.53
2022-10-14T03:13:52.609Z,23.40
2022-10-14T03:16:20.090Z,21.47
2022-10-14T03:18:47.602Z,20.00
2022-10-14T03:21:15.024Z,24.20
2022-10-14T03:23:42.524Z,20.90
2022-10-14T03:26:13.815Z,21.30
2022-10-14T03:28:41.734Z,21.40
2022-10-14T03:31:09.220Z,19.73
2022-10-14T03:33:36.725Z,19.10
2022-10-14T03:36:04.284Z,21.53
2022-10-14T03:38:31.815Z,24.77
2022-10-14T03:40:59.350Z,22.40
2022-10-14T03:43:26.837Z,26.20
2022-10-14T03:45:54.695Z,21.70
2022-10-14T03:48:22.264Z,24.77
2022-10-14T03:50:49.838Z,21.50
2022-10-14T03:53:17.496Z,24.03
2022-10-14T03:55:44.985Z,22.70
2022-10-14T03:58:12.956Z,24.60
2022-10-14T04:00:45.529Z,24.97
2022-10-14T04:03:13.176Z,22.90
2022-10-14T04:05:40.632Z,24.07
2022-10-14T04:08:08.181Z,24.63
2022-10-14T04:10:35.822Z,26.23
2022-10-14T04:13:03.365Z,32.23
2022-10-14T04:15:30.810Z,26.07
2022-10-14T04:17:58.304Z,28.50
2022-10-14T04:20:25.792Z,26.77
2022-10-14T04:22:53.386Z,26.47
2022-10-14T04:25:20.969Z,25.77
2022-10-14T04:27:48.480Z,23.80
2022-10-14T04:30:16.077Z,25.23
2022-10-14T04:32:43.588Z,28.33
2022-10-14T04:35:11.074Z,31.40
2022-10-14T04:37:38.782Z,24.67
2022-10-14T04:40:06.529Z,23.57
2022-10-14T04:42:34.063Z,26.67
2022-10-14T04:45:01.657Z,24.47
2022-10-14T04:47:29.109Z,22.00
2022-10-14T04:49:56.637Z,22.23
2022-10-14T04:52:24.383Z,18.63
2022-10-14T04:54:52.200Z,23.30
2022-10-14T04:57:19.717Z,21.17
2022-10-14T04:59:47.236Z,18.63
2022-10-14T05:02:15.257Z,19.73
2022-10-14T05:04:42.938Z,21.57
2022-10-14T05:07:10.463Z,19.60
2022-10-14T05:09:38.039Z,21.07
2022-10-14T05:12:05.662Z,20.47
2022-10-14T05:14:33.264Z,20.90
2022-10-14T05:17:00.698Z,23.73
2022-10-14T05:19:28.190Z,20.37
2022-10-14T05:21:55.680Z,25.63
2022-10-14T05:24:23.210Z,18.23
2022-10-14T05:26:50.691Z,23.60
2022-10-14T05:29:18.269Z,21.13
2022-10-14T05:31:45.736Z,17.97
2022-10-14T05:34:13.282Z,22.37
2022-10-14T05:36:40.722Z,19.10
2022-10-14T05:39:08.929Z,21.30
2022-10-14T05:41:36.390Z,25.50
2022-10-14T05:44:04.178Z,26.33
2022-10-14T05:46:31.650Z,27.00
2022-10-14T05:48:59.173Z,26.03
2022-10-14T05:51:26.669Z,27.70
2022-10-14T05:53:54.140Z,22.47
2022-10-14T05:56:21.631Z,22.30
2022-10-14T05:58:49.234Z,19.10
2022-10-14T06:01:16.812Z,24.00
2022-10-14T06:03:44.481Z,18.57
2022-10-14T06:06:12.961Z,42.77
2022-10-14T06:08:40.893Z,23.23
2022-10-14T06:11:08.426Z,33.17
2022-10-14T06:13:36.308Z,28.10
2022-10-14T06:16:07.598Z,20.83
2022-10-14T06:18:36.047Z,22.03
2022-10-14T06:21:04.078Z,17.70
2022-10-14T06:23:31.747Z,17.63
2022-10-14T06:25:59.239Z,23.00
2022-10-14T06:28:26.782Z,19.53
2022-10-14T06:30:55.032Z,23.33
2022-10-14T06:33:23.134Z,19.80
2022-10-14T06:35:50.660Z,19.83
2022-10-14T06:38:18.163Z,17.53
2022-10-14T06:40:45.611Z,17.97
2022-10-14T06:43:13.142Z,18.07
2022-10-14T06:45:40.573Z,19.53
2022-10-14T06:48:08.053Z,17.80
2022-10-14T06:50:35.540Z,17.43
2022-10-14T06:53:03.169Z,19.70
2022-10-14T06:55:30.642Z,16.53
2022-10-14T06:58:01.193Z,14.07
2022-10-14T07:00:28.926Z,21.70
2022-10-14T07:02:58.183Z,13.80
2022-10-14T07:05:25.841Z,18.57
2022-10-14T07:07:53.358Z,13.03
2022-10-14T07:10:21.136Z,15.67
2022-10-14T07:12:48.866Z,11.90
2022-10-14T07:15:16.421Z,16.23
2022-10-14T07:17:44.129Z,13.27
2022-10-14T07:20:11.879Z,13.10
2022-10-14T07:22:39.373Z,11.60
2022-10-14T07:25:07.394Z,14.80
2022-10-14T07:27:34.954Z,9.93
2022-10-14T07:30:02.465Z,10.20
2022-10-14T07:32:30.131Z,10.93
2022-10-14T07:34:57.657Z,13.77
2022-10-14T07:37:25.525Z,11.63
2022-10-14T07:39:53.276Z,13.10
2022-10-14T07:44:48.653Z,11.13
2022-10-14T07:47:16.687Z,11.07
2022-10-14T07:49:44.238Z,11.83
2022-10-14T07:52:11.987Z,11.93
2022-10-14T07:54:39.486Z,10.17
2022-10-14T07:57:07.037Z,9.30
2022-10-14T07:59:34.757Z,10.30
2022-10-14T08:02:02.630Z,12.27
2022-10-14T08:04:30.280Z,9.87
2022-10-14T08:06:58.050Z,9.60
2022-10-14T08:11:54.342Z,7.93
2022-10-14T08:14:22.108Z,11.83
2022-10-14T08:16:51.029Z,10.93
2022-10-14T08:19:18.807Z,7.33
2022-10-14T08:21:46.312Z,9.10
2022-10-14T08:24:13.866Z,8.53
2022-10-14T08:26:48.807Z,6.57
2022-10-14T08:29:16.366Z,10.60
2022-10-14T08:31:43.804Z,7.97
2022-10-14T08:34:11.369Z,8.43
2022-10-14T08:36:38.812Z,7.07
2022-10-14T08:39:06.705Z,7.93
2022-10-14T08:41:52.833Z,9.67
2022-10-14T08:44:23.627Z,7.33
2022-10-14T08:46:58.931Z,9.57
2022-10-14T08:49:30.229Z,11.60
2022-10-14T08:52:24.474Z,11.83
2022-10-14T08:54:54.360Z,10.43
2022-10-14T08:57:23.171Z,11.50
2022-10-14T08:59:50.830Z,14.53
2022-10-14T09:02:21.525Z,13.50
2022-10-14T09:04:49.385Z,20.03
2022-10-14T09:07:18.115Z,22.87
2022-10-14T09:09:46.457Z,25.90
2022-10-14T09:12:16.627Z,31.63
2022-10-14T09:14:46.668Z,32.30
2022-10-14T09:17:17.450Z,33.57
2022-10-14T09:19:51.040Z,29.77
2022-10-14T09:22:18.781Z,30.07
2022-10-14T09:24:46.498Z,24.37
2022-10-14T09:27:14.118Z,32.33
2022-10-14T09:29:52.677Z,29.57
2022-10-14T09:32:28.545Z,24.13
2022-10-14T09:34:56.833Z,22.80
2022-10-14T09:37:30.305Z,18.03
2022-10-14T09:40:00.775Z,12.90
2022-10-14T09:42:35.938Z,9.70
2022-10-14T09:47:36.360Z,12.90
2022-10-14T09:50:08.410Z,8.97
2022-10-14T09:52:36.428Z,8.47
2022-10-14T09:55:20.096Z,8.57
2022-10-14T09:57:48.210Z,8.63
2022-10-14T10:00:26.747Z,7.30
2022-10-14T10:02:54.806Z,8.13
2022-10-14T10:05:40.665Z,8.03
2022-10-14T10:08:19.226Z,9.70
2022-10-14T10:11:06.663Z,8.90
2022-10-14T10:13:39.684Z,10.77
2022-10-14T10:16:08.816Z,8.70
2022-10-14T10:18:36.703Z,6.43
2022-10-14T10:21:15.355Z,6.93
2022-10-14T10:23:57.806Z,7.63
2022-10-14T10:26:27.274Z,7.47
2022-10-14T10:28:55.851Z,7.60
2022-10-14T10:31:33.231Z,8.93
2022-10-14T10:34:19.698Z,7.37
2022-10-14T10:36:52.864Z,7.60
2022-10-14T10:39:26.349Z,7.87
2022-10-14T10:42:06.341Z,8.07
2022-10-14T10:44:40.903Z,8.43
2022-10-14T10:47:17.061Z,9.43
2022-10-14T10:50:00.026Z,9.10
2022-10-14T10:52:47.281Z,9.37
2022-10-14T10:55:14.957Z,9.93
2022-10-14T10:58:00.185Z,9.80
2022-10-14T11:00:29.369Z,8.87
2022-10-14T11:02:59.708Z,8.60
2022-10-14T11:05:36.822Z,10.20
2022-10-14T11:08:12.515Z,10.23
2022-10-14T11:10:42.891Z,15.00
2022-10-14T11:13:28.217Z,11.33
2022-10-14T11:16:02.135Z,10.70
2022-10-14T11:18:41.168Z,10.17
2022-10-14T11:21:13.828Z,12.37
2022-10-14T11:23:41.436Z,13.13
2022-10-14T11:26:11.915Z,11.10
2022-10-14T11:28:45.861Z,12.13
2022-10-14T11:31:22.445Z,11.47
2022-10-14T11:34:08.877Z,10.00
2022-10-14T11:36:42.440Z,11.37
2022-10-14T11:39:27.285Z,12.50
2022-10-14T11:41:56.314Z,11.57
2022-10-14T11:44:29.402Z,10.67
2022-10-14T11:47:00.700Z,11.70
2022-10-14T11:49:32.964Z,12.77
2022-10-14T11:52:12.197Z,13.67
2022-10-14T11:54:39.780Z,13.17
2022-10-14T11:57:20.547Z,13.77
2022-10-14T11:59:53.477Z,14.03
2022-10-14T12:02:33.772Z,13.83
2022-10-14T12:05:15.656Z,11.10
2022-10-14T12:08:04.301Z,15.20
2022-10-14T12:10:42.376Z,15.27
2022-10-14T12:13:14.023Z,14.00
2022-10-14T12:15:43.571Z,15.63
2022-10-14T12:18:12.739Z,17.57
2022-10-14T12:20:47.358Z,15.53
2022-10-14T12:23:28.745Z,17.27
2022-10-14T12:26:01.039Z,13.67
2022-10-14T12:28:29.248Z,15.00
2022-10-14T12:31:16.915Z,17.53
2022-10-14T12:34:03.018Z,12.13
2022-10-14T12:36:33.765Z,10.90
2022-10-14T12:39:19.646Z,15.93
2022-10-14T12:41:56.182Z,14.43
2022-10-14T12:44:24.426Z,13.07
2022-10-14T12:46:53.315Z,13.20
2022-10-14T12:49:31.978Z,13.37
2022-10-14T12:52:01.369Z,13.70
2022-10-14T12:54:29.976Z,13.73
2022-10-14T12:57:05.281Z,13.30
2022-10-14T12:59:38.681Z,16.20
2022-10-14T13:02:19.643Z,13.77
2022-10-14T13:04:51.807Z,14.47
2022-10-14T13:07:39.754Z,13.77
2022-10-14T13:10:25.707Z,14.30
2022-10-14T13:12:53.566Z,17.17
2022-10-14T13:15:33.708Z,13.97
2022-10-14T13:18:21.415Z,14.80
2022-10-14T13:20:50.980Z,18.10
2022-10-14T13:23:37.587Z,16.07
2022-10-14T13:26:14.297Z,22.70
2022-10-14T13:29:02.175Z,18.70
2022-10-14T13:31:35.844Z,16.90
2022-10-14T13:34:12.648Z,20.33
2022-10-14T13:36:50.040Z,17.10
2022-10-14T13:39:17.594Z,18.07
2022-10-14T13:41:45.635Z,16.37
2022-10-14T13:44:13.215Z,17.00
2022-10-14T13:46:46.201Z,16.20
2022-10-14T13:49:35.456Z,14.57
2022-10-14T13:52:14.323Z,15.73
2022-10-14T13:54:41.980Z,16.30
2022-10-14T13:57:48.203Z,16.63
2022-10-14T14:00:39.200Z,14.37
2022-10-14T14:02:57.728Z,16.13
2022-10-14T14:05:32.599Z,17.23
2022-10-14T14:08:34.973Z,16.13
2022-10-14T14:11:16.358Z,15.20
2022-10-14T14:14:00.740Z,14.30
2022-10-14T14:16:39.336Z,16.50
2022-10-14T14:19:09.197Z,14.17
2022-10-14T14:21:37.529Z,15.37
2022-10-14T14:24:09.521Z,17.87
2022-10-14T14:26:38.694Z,13.47
2022-10-14T14:29:19.794Z,15.40
2022-10-14T14:32:06.197Z,17.37
2022-10-14T14:34:36.004Z,15.80
2022-10-14T14:37:34.375Z,15.93
2022-10-14T14:40:01.557Z,17.63
2022-10-14T14:42:34.074Z,18.00
2022-10-14T14:45:04.218Z,14.90
2022-10-14T14:47:32.229Z,13.67
2022-10-14T14:50:25.510Z,15.47
2022-10-14T14:52:49.284Z,16.03
2022-10-14T14:55:35.408Z,12.77
2022-10-14T14:58:04.517Z,13.17
2022-10-14T15:00:32.262Z,14.07
2022-10-14T15:03:01.235Z,12.80
2022-10-14T15:05:29.070Z,15.33
2022-10-14T15:07:57.490Z,14.67
2022-10-14T15:10:27.059Z,13.60
2022-10-14T15:12:56.104Z,11.07
2022-10-14T15:15:23.669Z,10.90
2022-10-14T15:18:05.253Z,8.73
2022-10-14T15:20:38.789Z,7.60
2022-10-14T15:23:29.280Z,9.03
2022-10-14T15:25:59.937Z,6.53
2022-10-14T15:28:31.665Z,6.70
2022-10-14T15:31:03.077Z,7.50
2022-10-14T15:33:33.124Z,6.83
2022-10-14T15:36:01.972Z,9.37
2022-10-14T15:40:57.669Z,5.43
2022-10-14T15:43:26.672Z,8.50
2022-10-14T15:45:55.115Z,4.40
2022-10-14T15:48:22.765Z,4.67
2022-10-14T15:50:50.208Z,5.50
2022-10-14T15:53:18.035Z,4.37
2022-10-14T15:55:45.570Z,5.03
2022-10-14T15:58:13.074Z,7.77
2022-10-14T16:00:40.594Z,6.17
2022-10-14T16:03:10.726Z,4.70
2022-10-14T16:05:38.418Z,5.57
2022-10-14T16:08:12.823Z,4.30
2022-10-14T16:10:43.467Z,6.00
2022-10-14T16:13:14.681Z,8.43
2022-10-14T16:15:55.049Z,5.50
2022-10-14T16:18:22.518Z,9.03
2022-10-14T16:20:50.051Z,10.40
2022-10-14T16:23:18.296Z,7.80
2022-10-14T16:25:46.922Z,7.43
2022-10-14T16:28:14.834Z,5.53
2022-10-14T16:30:43.957Z,6.23
2022-10-14T16:35:38.916Z,5.70
2022-10-14T16:38:06.540Z,5.97
2022-10-14T16:40:36.747Z,6.67
2022-10-14T16:43:04.714Z,6.83
2022-10-14T16:45:32.290Z,7.10
2022-10-14T16:47:59.858Z,8.57
2022-10-14T16:50:27.363Z,6.07
2022-10-14T16:52:55.036Z,6.23
2022-10-14T16:55:23.282Z,8.20
2022-10-14T16:57:51.049Z,7.90
2022-10-14T17:02:46.319Z,8.37
2022-10-14T17:05:14.114Z,6.30
2022-10-14T17:07:42.077Z,6.03
2022-10-14T17:10:11.375Z,8.90
2022-10-14T17:12:39.125Z,10.40
2022-10-14T17:15:06.954Z,7.63
2022-10-14T17:17:34.478Z,9.73
2022-10-14T17:20:02.069Z,6.97
2022-10-14T17:22:29.560Z,8.80
2022-10-14T17:24:57.024Z,7.27
2022-10-14T17:27:24.510Z,11.70
2022-10-14T17:29:52.200Z,8.63
2022-10-14T17:32:25.193Z,9.27
2022-10-14T17:34:53.570Z,10.17
2022-10-14T17:37:21.317Z,10.87
2022-10-14T17:39:48.866Z,12.87
2022-10-14T17:42:16.560Z,13.10
2022-10-14T17:44:44.141Z,9.13
2022-10-14T17:47:11.690Z,11.07
2022-10-14T17:49:39.228Z,9.80
2022-10-14T17:52:06.659Z,9.90
2022-10-14T17:54:34.171Z,12.37
2022-10-14T17:57:01.694Z,10.23
2022-10-14T17:59:29.454Z,9.97
2022-10-14T18:02:02.672Z,10.93
2022-10-14T18:04:31.172Z,11.07
2022-10-14T18:06:59.589Z,11.10
2022-10-14T18:09:27.121Z,9.60
2022-10-14T18:12:10.517Z,11.93
2022-10-14T18:14:41.602Z,8.77
2022-10-14T18:17:09.974Z,9.90
2022-10-14T18:19:37.452Z,11.07
2022-10-14T18:22:05.291Z,11.43
2022-10-14T18:24:32.824Z,10.37
2022-10-14T18:27:00.361Z,9.53
2022-10-14T18:29:27.889Z,11.60
2022-10-14T18:31:55.538Z,9.20
2022-10-14T18:34:23.106Z,9.27
2022-10-14T18:36:50.741Z,8.97
2022-10-14T18:39:18.260Z,9.23
2022-10-14T18:41:45.815Z,10.73
2022-10-14T18:44:13.403Z,12.43
2022-10-14T18:46:40.954Z,10.63
2022-10-14T18:49:11.006Z,14.73
2022-10-14T18:51:39.722Z,13.57
2022-10-14T18:54:14.717Z,12.73
2022-10-14T18:56:42.861Z,12.20
2022-10-14T18:59:17.818Z,13.77
2022-10-14T19:01:46.151Z,14.37
2022-10-14T19:04:14.976Z,12.73
2022-10-14T19:06:45.747Z,11.60
2022-10-14T19:09:13.800Z,13.20
2022-10-14T19:11:42.124Z,17.40
2022-10-14T19:14:09.880Z,16.40
2022-10-14T19:16:38.492Z,15.37
2022-10-14T19:19:07.372Z,14.80
2022-10-14T19:21:35.524Z,13.83
2022-10-14T19:24:03.952Z,12.53
2022-10-14T19:26:32.938Z,13.53
2022-10-14T19:29:01.342Z,13.30
2022-10-14T19:31:30.285Z,15.83
2022-10-14T19:33:58.408Z,15.80
2022-10-14T19:36:26.090Z,15.83
2022-10-14T19:38:55.067Z,13.13
2022-10-14T19:41:22.557Z,13.90
2022-10-14T19:43:53.182Z,13.97
2022-10-14T19:46:21.927Z,14.27
2022-10-14T19:48:49.618Z,13.20
2022-10-14T19:51:17.286Z,15.20
2022-10-14T19:53:44.798Z,13.60
2022-10-14T19:56:13.465Z,16.70
2022-10-14T19:58:44.714Z,14.30
2022-10-14T20:01:14.300Z,16.47
2022-10-14T20:03:42.399Z,13.57
2022-10-14T20:06:10.783Z,15.93
2022-10-14T20:08:38.667Z,16.50
2022-10-14T20:11:11.063Z,14.20
2022-10-14T20:13:38.823Z,14.90
2022-10-14T20:16:07.775Z,16.33
2022-10-14T20:18:35.882Z,15.27
2022-10-14T20:21:04.414Z,13.30
2022-10-14T20:23:33.674Z,21.93
2022-10-14T20:26:01.615Z,15.70
2022-10-14T20:28:29.493Z,15.70
2022-10-14T20:30:57.596Z,14.67
2022-10-14T20:33:25.395Z,13.97
2022-10-14T20:35:59.888Z,12.80
2022-10-14T20:38:27.940Z,16.57
2022-10-14T20:40:56.013Z,14.33
2022-10-14T20:43:23.637Z,13.60
2022-10-14T20:45:52.105Z,12.70
2022-10-14T20:48:19.870Z,13.80
2022-10-14T20:50:47.470Z,15.67
2022-10-14T20:53:15.086Z,19.47
2022-10-14T20:55:42.646Z,16.73
2022-10-14T20:58:10.208Z,15.60
2022-10-14T21:00:37.770Z,15.17
2022-10-14T21:03:05.256Z,15.83
2022-10-14T21:05:32.766Z,23.57
2022-10-14T21:08:00.336Z,21.87
2022-10-14T21:10:28.333Z,20.13
2022-10-14T21:12:55.827Z,20.50
2022-10-14T21:15:23.316Z,18.77
2022-10-14T21:17:50.922Z,18.37
2022-10-14T21:20:18.409Z,19.57
2022-10-14T21:22:45.920Z,26.67
2022-10-14T21:25:13.450Z,19.30
2022-10-14T21:27:41.028Z,18.13
2022-10-14T21:30:08.855Z,17.67
2022-10-14T21:32:36.349Z,12.60
2022-10-14T21:35:04.080Z,14.40
2022-10-14T21:37:31.677Z,13.70
2022-10-14T21:39:59.521Z,12.43
2022-10-14T21:42:27.157Z,13.87
2022-10-14T21:44:54.618Z,17.63
2022-10-14T21:47:22.133Z,17.50
2022-10-14T21:49:49.773Z,25.93
2022-10-14T21:52:17.379Z,17.23
2022-10-14T21:54:44.880Z,13.63
2022-10-14T21:57:12.426Z,18.43
2022-10-14T21:59:39.890Z,15.93
2022-10-14T22:02:07.509Z,15.80
2022-10-14T22:04:38.230Z,16.77
2022-10-14T22:07:06.200Z,15.87
2022-10-14T22:09:33.691Z,14.60
2022-10-14T22:12:01.175Z,15.07
2022-10-14T22:14:28.801Z,13.93
2022-10-14T22:16:56.332Z,14.17
2022-10-14T22:19:23.892Z,12.87
2022-10-14T22:21:51.687Z,11.83
2022-10-14T22:24:19.145Z,12.90
2022-10-14T22:26:46.673Z,13.40
2022-10-14T22:29:15.515Z,15.63
2022-10-14T22:31:43.366Z,12.00
2022-10-14T22:34:14.385Z,10.77
2022-10-14T22:36:42.659Z,11.00
2022-10-14T22:39:14.336Z,10.93
2022-10-14T22:41:42.030Z,11.87
2022-10-14T22:44:10.490Z,10.33
2022-10-14T22:46:38.960Z,11.17
2022-10-14T22:49:06.816Z,11.83
2022-10-14T22:51:35.589Z,10.97
2022-10-14T22:54:03.212Z,11.93
2022-10-14T22:56:32.175Z,12.90
2022-10-14T22:59:04.570Z,15.20
2022-10-14T23:01:32.369Z,13.40
2022-10-14T23:04:00.307Z,13.90
2022-10-14T23:06:28.455Z,14.60
2022-10-14T23:08:56.106Z,13.83
2022-10-14T23:11:24.364Z,12.80
2022-10-14T23:13:52.334Z,14.87
2022-10-14T23:16:21.539Z,14.40
2022-10-14T23:18:49.443Z,14.47
2022-10-14T23:21:19.719Z,15.10
2022-10-14T23:23:47.989Z,19.17
2022-10-14T23:26:16.910Z,14.83
2022-10-14T23:28:50.573Z,18.27
2022-10-14T23:31:18.977Z,14.60
2022-10-14T23:33:46.539Z,18.73
2022-10-14T23:36:36.017Z,14.50
2022-10-14T23:39:03.646Z,23.37
2022-10-14T23:41:31.185Z,18.77
2022-10-14T23:43:58.706Z,17.13
2022-10-14T23:46:27.230Z,17.93
2022-10-14T23:49:06.862Z,20.33
2022-10-14T23:51:41.927Z,19.10
2022-10-14T23:54:09.529Z,20.87
2022-10-14T23:56:37.011Z,18.93
2022-10-14T23:59:04.507Z,20.73
